sensor_id;sensor_type;location;lat;lon;timestamp;P1;durP1;ratioP1;P2;durP2;ratioP2
20751;SDS011;10536;51.582;5.016;2022-12-18T00:03:34;142.70;;;39.13;;
20751;SDS011;10536;51.582;5.016;2022-12-18T00:08:35;151.70;;;41.08;;
20751;SDS011;10536;51.582;5.016;2022-12-18T00:13:35;159.07;;;43.15;;
20751;SDS011;10536;51.582;5.016;2022-12-18T00:18:36;170.93;;;44.55;;
20751;SDS011;10536;51.582;5.016;2022-12-18T00:23:38;166.23;;;43.33;;
20751;SDS011;10536;51.582;5.016;2022-12-18T00:28:40;153.70;;;41.30;;
20751;SDS011;10536;51.582;5.016;2022-12-18T00:33:41;147.30;;;40.42;;
20751;SDS011;10536;51.582;5.016;2022-12-18T00:38:42;146.68;;;40.42;;
20751;SDS011;10536;51.582;5.016;2022-12-18T00:43:43;132.55;;;37.97;;
20751;SDS011;10536;51.582;5.016;2022-12-18T00:48:43;132.07;;;38.22;;
20751;SDS011;10536;51.582;5.016;2022-12-18T00:53:43;126.50;;;39.40;;
20751;SDS011;10536;51.582;5.016;2022-12-18T00:58:44;127.07;;;37.00;;
20751;SDS011;10536;51.582;5.016;2022-12-18T01:03:44;111.50;;;34.58;;
20751;SDS011;10536;51.582;5.016;2022-12-18T01:08:46;109.40;;;34.65;;
20751;SDS011;10536;51.582;5.016;2022-12-18T01:13:47;107.05;;;33.40;;
20751;SDS011;10536;51.582;5.016;2022-12-18T01:18:50;114.75;;;36.55;;
20751;SDS011;10536;51.582;5.016;2022-12-18T01:23:52;79.47;;;25.75;;
20751;SDS011;10536;51.582;5.016;2022-12-18T01:28:57;104.25;;;34.47;;
20751;SDS011;10536;51.582;5.016;2022-12-18T01:34:01;104.28;;;34.85;;
20751;SDS011;10536;51.582;5.016;2022-12-18T01:39:04;113.25;;;34.55;;
20751;SDS011;10536;51.582;5.016;2022-12-18T01:44:46;104.18;;;34.08;;
20751;SDS011;10536;51.582;5.016;2022-12-18T01:49:46;108.03;;;33.95;;
20751;SDS011;10536;51.582;5.016;2022-12-18T01:54:47;101.18;;;31.83;;
20751;SDS011;10536;51.582;5.016;2022-12-18T01:59:50;99.03;;;31.23;;
20751;SDS011;10536;51.582;5.016;2022-12-18T02:04:52;93.03;;;30.52;;
20751;SDS011;10536;51.582;5.016;2022-12-18T02:15:00;86.25;;;27.88;;
20751;SDS011;10536;51.582;5.016;2022-12-18T02:20:16;90.75;;;29.42;;
20751;SDS011;10536;51.582;5.016;2022-12-18T02:25:27;92.78;;;30.20;;
20751;SDS011;10536;51.582;5.016;2022-12-18T02:30:35;89.63;;;29.40;;
20751;SDS011;10536;51.582;5.016;2022-12-18T02:35:37;78.03;;;27.20;;
20751;SDS011;10536;51.582;5.016;2022-12-18T02:40:40;80.65;;;25.98;;
20751;SDS011;10536;51.582;5.016;2022-12-18T02:45:46;80.68;;;28.85;;
20751;SDS011;10536;51.582;5.016;2022-12-18T02:51:23;82.32;;;28.20;;
20751;SDS011;10536;51.582;5.016;2022-12-18T02:56:42;64.40;;;23.50;;
20751;SDS011;10536;51.582;5.016;2022-12-18T03:02:14;63.42;;;24.50;;
20751;SDS011;10536;51.582;5.016;2022-12-18T03:07:33;70.20;;;24.83;;
20751;SDS011;10536;51.582;5.016;2022-12-18T03:12:40;70.30;;;25.50;;
20751;SDS011;10536;51.582;5.016;2022-12-18T03:17:57;65.40;;;23.08;;
20751;SDS011;10536;51.582;5.016;2022-12-18T03:23:04;78.13;;;25.20;;
20751;SDS011;10536;51.582;5.016;2022-12-18T03:28:13;67.95;;;25.00;;
20751;SDS011;10536;51.582;5.016;2022-12-18T03:33:18;66.75;;;23.30;;
20751;SDS011;10536;51.582;5.016;2022-12-18T03:38:24;73.45;;;24.63;;
20751;SDS011;10536;51.582;5.016;2022-12-18T03:48:44;61.05;;;22.60;;
20751;SDS011;10536;51.582;5.016;2022-12-18T03:53:58;59.30;;;23.90;;
20751;SDS011;10536;51.582;5.016;2022-12-18T03:59:00;57.13;;;22.50;;
20751;SDS011;10536;51.582;5.016;2022-12-18T04:04:02;55.53;;;20.83;;
20751;SDS011;10536;51.582;5.016;2022-12-18T04:09:05;50.95;;;21.88;;
20751;SDS011;10536;51.582;5.016;2022-12-18T04:14:05;55.80;;;22.65;;
20751;SDS011;10536;51.582;5.016;2022-12-18T04:19:06;51.75;;;20.75;;
20751;SDS011;10536;51.582;5.016;2022-12-18T04:24:06;55.40;;;21.70;;
20751;SDS011;10536;51.582;5.016;2022-12-18T04:29:07;50.00;;;19.60;;
20751;SDS011;10536;51.582;5.016;2022-12-18T04:34:07;50.30;;;20.45;;
20751;SDS011;10536;51.582;5.016;2022-12-18T04:39:07;48.22;;;20.45;;
20751;SDS011;10536;51.582;5.016;2022-12-18T04:44:08;60.88;;;20.38;;
20751;SDS011;10536;51.582;5.016;2022-12-18T04:49:08;56.13;;;21.30;;
20751;SDS011;10536;51.582;5.016;2022-12-18T04:54:10;44.92;;;19.33;;
20751;SDS011;10536;51.582;5.016;2022-12-18T04:59:11;53.33;;;20.08;;
20751;SDS011;10536;51.582;5.016;2022-12-18T05:04:11;46.80;;;18.98;;
20751;SDS011;10536;51.582;5.016;2022-12-18T05:09:11;48.67;;;19.83;;
20751;SDS011;10536;51.582;5.016;2022-12-18T05:14:12;48.88;;;18.60;;
20751;SDS011;10536;51.582;5.016;2022-12-18T05:19:12;42.97;;;18.38;;
20751;SDS011;10536;51.582;5.016;2022-12-18T05:24:13;42.90;;;18.60;;
20751;SDS011;10536;51.582;5.016;2022-12-18T05:29:13;44.17;;;17.95;;
20751;SDS011;10536;51.582;5.016;2022-12-18T05:34:14;43.95;;;17.75;;
20751;SDS011;10536;51.582;5.016;2022-12-18T05:39:14;44.65;;;17.70;;
20751;SDS011;10536;51.582;5.016;2022-12-18T05:44:14;46.97;;;17.95;;
20751;SDS011;10536;51.582;5.016;2022-12-18T05:49:15;42.30;;;17.00;;
20751;SDS011;10536;51.582;5.016;2022-12-18T05:54:15;44.75;;;17.58;;
20751;SDS011;10536;51.582;5.016;2022-12-18T05:59:16;43.85;;;17.27;;
20751;SDS011;10536;51.582;5.016;2022-12-18T06:04:16;37.03;;;16.65;;
20751;SDS011;10536;51.582;5.016;2022-12-18T06:09:17;41.08;;;17.77;;
20751;SDS011;10536;51.582;5.016;2022-12-18T06:14:17;36.88;;;15.55;;
20751;SDS011;10536;51.582;5.016;2022-12-18T06:19:18;41.53;;;16.00;;
20751;SDS011;10536;51.582;5.016;2022-12-18T06:24:19;37.63;;;16.17;;
20751;SDS011;10536;51.582;5.016;2022-12-18T06:29:19;43.58;;;17.00;;
20751;SDS011;10536;51.582;5.016;2022-12-18T06:34:19;39.42;;;17.38;;
20751;SDS011;10536;51.582;5.016;2022-12-18T06:39:20;44.67;;;16.80;;
20751;SDS011;10536;51.582;5.016;2022-12-18T06:44:21;44.63;;;19.73;;
20751;SDS011;10536;51.582;5.016;2022-12-18T06:49:21;48.05;;;18.08;;
20751;SDS011;10536;51.582;5.016;2022-12-18T06:54:22;50.13;;;20.17;;
20751;SDS011;10536;51.582;5.016;2022-12-18T06:59:22;47.13;;;18.23;;
20751;SDS011;10536;51.582;5.016;2022-12-18T07:04:27;55.88;;;21.92;;
20751;SDS011;10536;51.582;5.016;2022-12-18T07:09:29;42.78;;;18.10;;
20751;SDS011;10536;51.582;5.016;2022-12-18T07:14:30;46.20;;;18.35;;
20751;SDS011;10536;51.582;5.016;2022-12-18T07:19:30;46.92;;;17.65;;
20751;SDS011;10536;51.582;5.016;2022-12-18T07:24:32;46.72;;;19.13;;
20751;SDS011;10536;51.582;5.016;2022-12-18T07:29:33;45.33;;;19.33;;
20751;SDS011;10536;51.582;5.016;2022-12-18T07:34:34;45.08;;;18.52;;
20751;SDS011;10536;51.582;5.016;2022-12-18T07:39:34;42.28;;;17.80;;
20751;SDS011;10536;51.582;5.016;2022-12-18T07:44:35;43.38;;;17.58;;
20751;SDS011;10536;51.582;5.016;2022-12-18T07:49:36;38.38;;;16.17;;
20751;SDS011;10536;51.582;5.016;2022-12-18T07:54:37;40.90;;;17.67;;
20751;SDS011;10536;51.582;5.016;2022-12-18T07:59:37;36.20;;;16.48;;
20751;SDS011;10536;51.582;5.016;2022-12-18T08:04:38;52.17;;;21.52;;
20751;SDS011;10536;51.582;5.016;2022-12-18T08:09:38;41.85;;;17.13;;
20751;SDS011;10536;51.582;5.016;2022-12-18T08:14:38;66.10;;;33.53;;
20751;SDS011;10536;51.582;5.016;2022-12-18T08:19:39;42.17;;;18.48;;
20751;SDS011;10536;51.582;5.016;2022-12-18T08:24:39;45.08;;;19.98;;
20751;SDS011;10536;51.582;5.016;2022-12-18T08:29:40;46.88;;;18.02;;
20751;SDS011;10536;51.582;5.016;2022-12-18T08:34:40;42.38;;;18.52;;
20751;SDS011;10536;51.582;5.016;2022-12-18T08:39:41;41.17;;;17.50;;
20751;SDS011;10536;51.582;5.016;2022-12-18T08:44:41;41.13;;;17.67;;
20751;SDS011;10536;51.582;5.016;2022-12-18T08:49:41;45.03;;;17.98;;
20751;SDS011;10536;51.582;5.016;2022-12-18T08:54:42;41.25;;;17.30;;
20751;SDS011;10536;51.582;5.016;2022-12-18T08:59:42;42.80;;;17.63;;
20751;SDS011;10536;51.582;5.016;2022-12-18T09:04:43;42.95;;;17.85;;
20751;SDS011;10536;51.582;5.016;2022-12-18T09:09:50;36.45;;;16.88;;
20751;SDS011;10536;51.582;5.016;2022-12-18T09:14:52;44.72;;;18.50;;
20751;SDS011;10536;51.582;5.016;2022-12-18T09:19:53;41.08;;;17.38;;
20751;SDS011;10536;51.582;5.016;2022-12-18T09:24:54;40.50;;;17.08;;
20751;SDS011;10536;51.582;5.016;2022-12-18T09:29:55;37.95;;;17.23;;
20751;SDS011;10536;51.582;5.016;2022-12-18T09:34:55;38.13;;;17.60;;
20751;SDS011;10536;51.582;5.016;2022-12-18T09:39:56;38.37;;;16.97;;
20751;SDS011;10536;51.582;5.016;2022-12-18T09:44:57;42.95;;;17.67;;
20751;SDS011;10536;51.582;5.016;2022-12-18T09:50:00;40.10;;;18.35;;
20751;SDS011;10536;51.582;5.016;2022-12-18T10:00:31;37.20;;;17.42;;
20751;SDS011;10536;51.582;5.016;2022-12-18T10:10:58;35.58;;;17.13;;
20751;SDS011;10536;51.582;5.016;2022-12-18T10:16:13;39.75;;;17.83;;
20751;SDS011;10536;51.582;5.016;2022-12-18T10:21:18;37.67;;;18.70;;
20751;SDS011;10536;51.582;5.016;2022-12-18T10:26:24;37.28;;;16.80;;
20751;SDS011;10536;51.582;5.016;2022-12-18T10:31:25;36.72;;;17.42;;
20751;SDS011;10536;51.582;5.016;2022-12-18T10:36:25;32.88;;;17.15;;
20751;SDS011;10536;51.582;5.016;2022-12-18T10:41:26;36.38;;;17.17;;
20751;SDS011;10536;51.582;5.016;2022-12-18T10:46:27;35.13;;;17.13;;
20751;SDS011;10536;51.582;5.016;2022-12-18T10:51:28;33.35;;;16.98;;
20751;SDS011;10536;51.582;5.016;2022-12-18T10:56:32;41.35;;;17.67;;
20751;SDS011;10536;51.582;5.016;2022-12-18T11:12:02;40.75;;;18.95;;
20751;SDS011;10536;51.582;5.016;2022-12-18T11:17:28;44.92;;;21.05;;
20751;SDS011;10536;51.582;5.016;2022-12-18T11:22:31;40.97;;;19.63;;
20751;SDS011;10536;51.582;5.016;2022-12-18T11:27:34;51.63;;;24.27;;
20751;SDS011;10536;51.582;5.016;2022-12-18T11:32:35;49.35;;;22.40;;
20751;SDS011;10536;51.582;5.016;2022-12-18T11:37:39;41.58;;;20.80;;
20751;SDS011;10536;51.582;5.016;2022-12-18T11:48:12;46.85;;;19.48;;
20751;SDS011;10536;51.582;5.016;2022-12-18T11:53:22;49.08;;;23.80;;
20751;SDS011;10536;51.582;5.016;2022-12-18T12:09:38;57.65;;;24.08;;
20751;SDS011;10536;51.582;5.016;2022-12-18T12:14:47;58.08;;;26.38;;
20751;SDS011;10536;51.582;5.016;2022-12-18T12:19:59;49.20;;;20.38;;
20751;SDS011;10536;51.582;5.016;2022-12-18T12:35:48;51.72;;;25.23;;
20751;SDS011;10536;51.582;5.016;2022-12-18T12:41:05;41.20;;;21.17;;
20751;SDS011;10536;51.582;5.016;2022-12-18T12:46:29;38.97;;;19.67;;
20751;SDS011;10536;51.582;5.016;2022-12-18T12:51:34;45.28;;;21.33;;
20751;SDS011;10536;51.582;5.016;2022-12-18T12:56:39;41.78;;;19.50;;
20751;SDS011;10536;51.582;5.016;2022-12-18T13:01:55;61.35;;;29.02;;
20751;SDS011;10536;51.582;5.016;2022-12-18T13:07:37;65.55;;;32.10;;
20751;SDS011;10536;51.582;5.016;2022-12-18T13:12:31;51.05;;;24.67;;
20751;SDS011;10536;51.582;5.016;2022-12-18T13:18:04;51.85;;;25.95;;
20751;SDS011;10536;51.582;5.016;2022-12-18T13:33:46;89.18;;;40.60;;
20751;SDS011;10536;51.582;5.016;2022-12-18T13:38:47;44.58;;;23.38;;
20751;SDS011;10536;51.582;5.016;2022-12-18T13:44:13;62.13;;;31.33;;
20751;SDS011;10536;51.582;5.016;2022-12-18T13:49:38;44.95;;;21.92;;
20751;SDS011;10536;51.582;5.016;2022-12-18T13:54:40;66.00;;;31.27;;
20751;SDS011;10536;51.582;5.016;2022-12-18T13:59:42;42.78;;;22.10;;
20751;SDS011;10536;51.582;5.016;2022-12-18T14:04:46;51.90;;;27.25;;
20751;SDS011;10536;51.582;5.016;2022-12-18T14:09:53;42.53;;;23.77;;
20751;SDS011;10536;51.582;5.016;2022-12-18T14:14:57;40.00;;;21.55;;
20751;SDS011;10536;51.582;5.016;2022-12-18T14:19:58;42.63;;;20.08;;
20751;SDS011;10536;51.582;5.016;2022-12-18T14:25:19;51.08;;;24.02;;
20751;SDS011;10536;51.582;5.016;2022-12-18T14:30:26;66.15;;;30.77;;
20751;SDS011;10536;51.582;5.016;2022-12-18T14:35:28;79.57;;;35.72;;
20751;SDS011;10536;51.582;5.016;2022-12-18T14:40:29;70.25;;;34.28;;
20751;SDS011;10536;51.582;5.016;2022-12-18T14:45:41;64.03;;;30.75;;
20751;SDS011;10536;51.582;5.016;2022-12-18T14:50:59;46.05;;;23.52;;
20751;SDS011;10536;51.582;5.016;2022-12-18T14:56:18;53.35;;;28.80;;
20751;SDS011;10536;51.582;5.016;2022-12-18T15:12:35;66.38;;;30.30;;
20751;SDS011;10536;51.582;5.016;2022-12-18T15:18:15;44.75;;;23.85;;
20751;SDS011;10536;51.582;5.016;2022-12-18T15:23:21;42.78;;;19.67;;
20751;SDS011;10536;51.582;5.016;2022-12-18T15:28:25;46.65;;;22.27;;
20751;SDS011;10536;51.582;5.016;2022-12-18T15:33:33;44.38;;;20.67;;
20751;SDS011;10536;51.582;5.016;2022-12-18T15:38:38;45.05;;;19.85;;
20751;SDS011;10536;51.582;5.016;2022-12-18T15:43:38;40.40;;;19.75;;
20751;SDS011;10536;51.582;5.016;2022-12-18T15:48:43;37.38;;;20.70;;
20751;SDS011;10536;51.582;5.016;2022-12-18T15:53:44;42.58;;;20.38;;
20751;SDS011;10536;51.582;5.016;2022-12-18T15:58:44;45.42;;;22.90;;
20751;SDS011;10536;51.582;5.016;2022-12-18T16:03:45;44.83;;;23.08;;
20751;SDS011;10536;51.582;5.016;2022-12-18T16:08:45;42.90;;;21.13;;
20751;SDS011;10536;51.582;5.016;2022-12-18T16:13:46;62.40;;;29.50;;
20751;SDS011;10536;51.582;5.016;2022-12-18T16:18:46;52.67;;;24.88;;
20751;SDS011;10536;51.582;5.016;2022-12-18T16:23:47;53.95;;;26.25;;
20751;SDS011;10536;51.582;5.016;2022-12-18T16:28:47;47.58;;;25.08;;
20751;SDS011;10536;51.582;5.016;2022-12-18T16:33:47;42.38;;;19.95;;
20751;SDS011;10536;51.582;5.016;2022-12-18T16:38:48;41.83;;;20.55;;
20751;SDS011;10536;51.582;5.016;2022-12-18T16:43:48;47.40;;;23.48;;
20751;SDS011;10536;51.582;5.016;2022-12-18T16:48:49;64.25;;;29.23;;
20751;SDS011;10536;51.582;5.016;2022-12-18T16:53:49;40.53;;;20.70;;
20751;SDS011;10536;51.582;5.016;2022-12-18T16:58:51;40.47;;;20.85;;
20751;SDS011;10536;51.582;5.016;2022-12-18T17:03:56;37.63;;;19.48;;
20751;SDS011;10536;51.582;5.016;2022-12-18T17:08:58;93.07;;;47.10;;
20751;SDS011;10536;51.582;5.016;2022-12-18T17:14:05;122.75;;;76.85;;
20751;SDS011;10536;51.582;5.016;2022-12-18T17:19:06;52.78;;;27.35;;
20751;SDS011;10536;51.582;5.016;2022-12-18T17:24:07;41.60;;;20.88;;
20751;SDS011;10536;51.582;5.016;2022-12-18T17:29:09;41.30;;;21.25;;
20751;SDS011;10536;51.582;5.016;2022-12-18T17:34:13;42.13;;;21.50;;
20751;SDS011;10536;51.582;5.016;2022-12-18T17:39:15;41.67;;;21.33;;
20751;SDS011;10536;51.582;5.016;2022-12-18T17:44:18;42.83;;;20.08;;
20751;SDS011;10536;51.582;5.016;2022-12-18T17:49:18;40.17;;;20.20;;
20751;SDS011;10536;51.582;5.016;2022-12-18T17:54:19;58.97;;;30.58;;
20751;SDS011;10536;51.582;5.016;2022-12-18T17:59:20;42.30;;;21.05;;
20751;SDS011;10536;51.582;5.016;2022-12-18T18:04:20;44.40;;;21.02;;
20751;SDS011;10536;51.582;5.016;2022-12-18T18:09:20;41.33;;;21.77;;
20751;SDS011;10536;51.582;5.016;2022-12-18T18:14:21;43.08;;;21.85;;
20751;SDS011;10536;51.582;5.016;2022-12-18T18:19:22;42.63;;;22.40;;
20751;SDS011;10536;51.582;5.016;2022-12-18T18:24:24;47.03;;;20.80;;
20751;SDS011;10536;51.582;5.016;2022-12-18T18:29:26;40.95;;;21.30;;
20751;SDS011;10536;51.582;5.016;2022-12-18T18:34:29;44.50;;;22.13;;
20751;SDS011;10536;51.582;5.016;2022-12-18T18:39:31;39.70;;;20.20;;
20751;SDS011;10536;51.582;5.016;2022-12-18T18:44:31;52.63;;;23.45;;
20751;SDS011;10536;51.582;5.016;2022-12-18T18:49:32;48.35;;;23.58;;
20751;SDS011;10536;51.582;5.016;2022-12-18T18:54:33;48.30;;;23.30;;
20751;SDS011;10536;51.582;5.016;2022-12-18T18:59:33;50.45;;;22.73;;
20751;SDS011;10536;51.582;5.016;2022-12-18T19:04:33;51.80;;;24.48;;
20751;SDS011;10536;51.582;5.016;2022-12-18T19:09:35;50.08;;;25.83;;
20751;SDS011;10536;51.582;5.016;2022-12-18T19:14:36;55.45;;;27.85;;
20751;SDS011;10536;51.582;5.016;2022-12-18T19:19:36;52.97;;;24.80;;
20751;SDS011;10536;51.582;5.016;2022-12-18T19:24:37;55.88;;;25.25;;
20751;SDS011;10536;51.582;5.016;2022-12-18T19:29:38;57.58;;;25.38;;
20751;SDS011;10536;51.582;5.016;2022-12-18T19:34:38;60.08;;;28.05;;
20751;SDS011;10536;51.582;5.016;2022-12-18T19:39:39;60.40;;;26.58;;
20751;SDS011;10536;51.582;5.016;2022-12-18T19:44:39;58.42;;;27.23;;
20751;SDS011;10536;51.582;5.016;2022-12-18T19:49:39;61.37;;;27.10;;
20751;SDS011;10536;51.582;5.016;2022-12-18T19:54:40;62.30;;;26.42;;
20751;SDS011;10536;51.582;5.016;2022-12-18T19:59:41;63.60;;;26.92;;
20751;SDS011;10536;51.582;5.016;2022-12-18T20:04:41;57.78;;;28.20;;
20751;SDS011;10536;51.582;5.016;2022-12-18T20:09:42;64.05;;;27.95;;
20751;SDS011;10536;51.582;5.016;2022-12-18T20:14:42;61.15;;;28.00;;
20751;SDS011;10536;51.582;5.016;2022-12-18T20:19:43;69.35;;;28.83;;
20751;SDS011;10536;51.582;5.016;2022-12-18T20:24:43;112.90;;;50.53;;
20751;SDS011;10536;51.582;5.016;2022-12-18T20:29:44;73.95;;;32.55;;
20751;SDS011;10536;51.582;5.016;2022-12-18T20:34:44;73.65;;;32.08;;
20751;SDS011;10536;51.582;5.016;2022-12-18T20:39:45;65.82;;;28.30;;
20751;SDS011;10536;51.582;5.016;2022-12-18T20:44:45;95.22;;;43.33;;
20751;SDS011;10536;51.582;5.016;2022-12-18T20:49:46;79.60;;;36.55;;
20751;SDS011;10536;51.582;5.016;2022-12-18T20:54:46;78.60;;;34.03;;
20751;SDS011;10536;51.582;5.016;2022-12-18T20:59:47;77.78;;;30.70;;
20751;SDS011;10536;51.582;5.016;2022-12-18T21:04:47;77.78;;;30.48;;
20751;SDS011;10536;51.582;5.016;2022-12-18T21:09:48;85.82;;;35.80;;
20751;SDS011;10536;51.582;5.016;2022-12-18T21:14:49;89.75;;;41.97;;
20751;SDS011;10536;51.582;5.016;2022-12-18T21:19:49;83.88;;;36.47;;
20751;SDS011;10536;51.582;5.016;2022-12-18T21:24:49;86.97;;;33.47;;
20751;SDS011;10536;51.582;5.016;2022-12-18T21:29:50;88.40;;;32.92;;
20751;SDS011;10536;51.582;5.016;2022-12-18T21:34:51;83.90;;;33.00;;
20751;SDS011;10536;51.582;5.016;2022-12-18T21:39:52;92.35;;;36.00;;
20751;SDS011;10536;51.582;5.016;2022-12-18T21:44:52;110.53;;;47.40;;
20751;SDS011;10536;51.582;5.016;2022-12-18T21:49:53;101.32;;;42.42;;
20751;SDS011;10536;51.582;5.016;2022-12-18T21:54:53;117.05;;;47.20;;
20751;SDS011;10536;51.582;5.016;2022-12-18T21:59:54;91.90;;;37.37;;
20751;SDS011;10536;51.582;5.016;2022-12-18T22:04:54;91.35;;;34.55;;
20751;SDS011;10536;51.582;5.016;2022-12-18T22:09:54;100.00;;;36.23;;
20751;SDS011;10536;51.582;5.016;2022-12-18T22:14:55;95.10;;;36.92;;
20751;SDS011;10536;51.582;5.016;2022-12-18T22:19:56;88.72;;;34.42;;
20751;SDS011;10536;51.582;5.016;2022-12-18T22:24:57;93.07;;;33.58;;
20751;SDS011;10536;51.582;5.016;2022-12-18T22:29:58;98.00;;;34.17;;
20751;SDS011;10536;51.582;5.016;2022-12-18T22:35:04;95.18;;;34.70;;
20751;SDS011;10536;51.582;5.016;2022-12-18T22:40:05;93.28;;;33.10;;
20751;SDS011;10536;51.582;5.016;2022-12-18T22:45:06;94.35;;;34.88;;
20751;SDS011;10536;51.582;5.016;2022-12-18T22:50:08;104.93;;;38.72;;
20751;SDS011;10536;51.582;5.016;2022-12-18T22:55:12;134.30;;;47.47;;
20751;SDS011;10536;51.582;5.016;2022-12-18T23:00:13;183.60;;;82.95;;
20751;SDS011;10536;51.582;5.016;2022-12-18T23:05:14;108.45;;;41.10;;
20751;SDS011;10536;51.582;5.016;2022-12-18T23:10:14;93.22;;;32.97;;
20751;SDS011;10536;51.582;5.016;2022-12-18T23:15:14;112.13;;;44.37;;
20751;SDS011;10536;51.582;5.016;2022-12-18T23:20:15;98.80;;;34.33;;
20751;SDS011;10536;51.582;5.016;2022-12-18T23:25:15;106.38;;;35.65;;
20751;SDS011;10536;51.582;5.016;2022-12-18T23:30:16;119.88;;;42.28;;
20751;SDS011;10536;51.582;5.016;2022-12-18T23:35:16;102.95;;;35.80;;
20751;SDS011;10536;51.582;5.016;2022-12-18T23:40:17;116.13;;;35.08;;
20751;SDS011;10536;51.582;5.016;2022-12-18T23:45:17;112.82;;;35.83;;
20751;SDS011;10536;51.582;5.016;2022-12-18T23:50:18;118.88;;;37.10;;
20751;SDS011;10536;51.582;5.016;2022-12-18T23:55:18;124.45;;;38.08;;
